sensor_id;sensor_type;location;lat;lon;timestamp;pressure;altitude;pressure_sealevel;temperature
20867;BMP280;10593;48.398;10.698;2023-10-13T00:01:57;96344.75;;;24.48
20867;BMP280;10593;48.398;10.698;2023-10-13T00:04:25;96350.66;;;24.51
20867;BMP280;10593;48.398;10.698;2023-10-13T00:06:52;96353.19;;;24.53
20867;BMP280;10593;48.398;10.698;2023-10-13T00:09:22;96353.19;;;24.53
20867;BMP280;10593;48.398;10.698;2023-10-13T00:11:52;96341.91;;;24.51
20867;BMP280;10593;48.398;10.698;2023-10-13T00:14:19;96346.22;;;24.52
20867;BMP280;10593;48.398;10.698;2023-10-13T00:16:47;96345.19;;;24.54
20867;BMP280;10593;48.398;10.698;2023-10-13T00:19:38;96345.19;;;24.54
20867;BMP280;10593;48.398;10.698;2023-10-13T00:22:17;96340.97;;;24.52
20867;BMP280;10593;48.398;10.698;2023-10-13T00:24:48;96334.03;;;24.51
20867;BMP280;10593;48.398;10.698;2023-10-13T00:27:19;96334.16;;;24.49
20867;BMP280;10593;48.398;10.698;2023-10-13T00:30:07;96337.75;;;24.48
20867;BMP280;10593;48.398;10.698;2023-10-13T00:32:51;96332.69;;;24.45
20867;BMP280;10593;48.398;10.698;2023-10-13T00:35:24;96329.44;;;24.42
20867;BMP280;10593;48.398;10.698;2023-10-13T00:37:54;96328.72;;;24.40
20867;BMP280;10593;48.398;10.698;2023-10-13T00:40:21;96339.31;;;24.38
20867;BMP280;10593;48.398;10.698;2023-10-13T00:43:00;96331.53;;;24.37
20867;BMP280;10593;48.398;10.698;2023-10-13T00:45:53;96330.09;;;24.33
20867;BMP280;10593;48.398;10.698;2023-10-13T00:48:30;96329.34;;;24.31
20867;BMP280;10593;48.398;10.698;2023-10-13T00:51:05;96320.03;;;24.27
20867;BMP280;10593;48.398;10.698;2023-10-13T00:53:40;96327.91;;;24.27
20867;BMP280;10593;48.398;10.698;2023-10-13T00:56:07;96325.38;;;24.25
20867;BMP280;10593;48.398;10.698;2023-10-13T00:58:37;96325.38;;;24.25
20867;BMP280;10593;48.398;10.698;2023-10-13T01:01:05;96321.28;;;24.21
20867;BMP280;10593;48.398;10.698;2023-10-13T01:03:53;96319.59;;;24.20
20867;BMP280;10593;48.398;10.698;2023-10-13T01:06:26;96317.06;;;24.19
20867;BMP280;10593;48.398;10.698;2023-10-13T01:09:10;96323.28;;;24.18
20867;BMP280;10593;48.398;10.698;2023-10-13T01:11:45;96323.28;;;24.18
20867;BMP280;10593;48.398;10.698;2023-10-13T01:14:16;96327.16;;;24.12
20867;BMP280;10593;48.398;10.698;2023-10-13T01:16:43;96324.53;;;24.12
20867;BMP280;10593;48.398;10.698;2023-10-13T01:19:14;96334.31;;;24.10
20867;BMP280;10593;48.398;10.698;2023-10-13T01:21:42;96324.84;;;24.08
20867;BMP280;10593;48.398;10.698;2023-10-13T01:24:13;96331.06;;;24.07
20867;BMP280;10593;48.398;10.698;2023-10-13T01:26:40;96324.22;;;24.04
20867;BMP280;10593;48.398;10.698;2023-10-13T01:29:07;96326.03;;;24.04
20867;BMP280;10593;48.398;10.698;2023-10-13T01:31:43;96321.72;;;24.03
20867;BMP280;10593;48.398;10.698;2023-10-13T01:34:13;96313.13;;;24.01
20867;BMP280;10593;48.398;10.698;2023-10-13T01:36:40;96314.88;;;24.00
20867;BMP280;10593;48.398;10.698;2023-10-13T01:39:08;96314.88;;;24.00
20867;BMP280;10593;48.398;10.698;2023-10-13T01:41:37;96314.16;;;23.98
20867;BMP280;10593;48.398;10.698;2023-10-13T01:44:05;96319.50;;;23.97
20867;BMP280;10593;48.398;10.698;2023-10-13T01:46:30;96319.50;;;23.97
20867;BMP280;10593;48.398;10.698;2023-10-13T01:48:56;96311.03;;;23.93
20867;BMP280;10593;48.398;10.698;2023-10-13T01:51:22;96316.28;;;23.93
20867;BMP280;10593;48.398;10.698;2023-10-13T01:53:54;96319.81;;;23.92
20867;BMP280;10593;48.398;10.698;2023-10-13T01:56:24;96311.22;;;23.90
20867;BMP280;10593;48.398;10.698;2023-10-13T01:58:50;96311.34;;;23.89
20867;BMP280;10593;48.398;10.698;2023-10-13T02:01:15;96318.34;;;23.88
20867;BMP280;10593;48.398;10.698;2023-10-13T02:03:55;96315.00;;;23.86
20867;BMP280;10593;48.398;10.698;2023-10-13T02:06:32;96323.09;;;23.83
20867;BMP280;10593;48.398;10.698;2023-10-13T02:09:05;96323.09;;;23.83
20867;BMP280;10593;48.398;10.698;2023-10-13T02:11:40;96316.22;;;23.81
20867;BMP280;10593;48.398;10.698;2023-10-13T02:14:07;96313.72;;;23.79
20867;BMP280;10593;48.398;10.698;2023-10-13T02:16:33;96319.16;;;23.76
20867;BMP280;10593;48.398;10.698;2023-10-13T02:18:58;96316.66;;;23.75
20867;BMP280;10593;48.398;10.698;2023-10-13T02:21:31;96314.13;;;23.73
20867;BMP280;10593;48.398;10.698;2023-10-13T02:23:58;96320.31;;;23.72
20867;BMP280;10593;48.398;10.698;2023-10-13T02:26:31;96313.59;;;23.68
20867;BMP280;10593;48.398;10.698;2023-10-13T02:28:58;96320.75;;;23.66
20867;BMP280;10593;48.398;10.698;2023-10-13T02:31:28;96318.22;;;23.65
20867;BMP280;10593;48.398;10.698;2023-10-13T02:33:54;96319.25;;;23.62
20867;BMP280;10593;48.398;10.698;2023-10-13T02:36:21;96314.31;;;23.58
20867;BMP280;10593;48.398;10.698;2023-10-13T02:39:05;96314.31;;;23.58
20867;BMP280;10593;48.398;10.698;2023-10-13T02:41:35;96318.00;;;23.56
20867;BMP280;10593;48.398;10.698;2023-10-13T02:44:05;96321.66;;;23.53
20867;BMP280;10593;48.398;10.698;2023-10-13T02:46:36;96317.44;;;23.51
20867;BMP280;10593;48.398;10.698;2023-10-13T02:49:06;96322.91;;;23.48
20867;BMP280;10593;48.398;10.698;2023-10-13T02:51:39;96317.88;;;23.45
20867;BMP280;10593;48.398;10.698;2023-10-13T02:54:09;96323.22;;;23.43
20867;BMP280;10593;48.398;10.698;2023-10-13T02:56:37;96321.66;;;23.41
20867;BMP280;10593;48.398;10.698;2023-10-13T02:59:03;96310.41;;;23.39
20867;BMP280;10593;48.398;10.698;2023-10-13T03:01:34;96308.72;;;23.38
20867;BMP280;10593;48.398;10.698;2023-10-13T03:04:03;96302.94;;;23.33
20867;BMP280;10593;48.398;10.698;2023-10-13T03:06:29;96302.94;;;23.33
20867;BMP280;10593;48.398;10.698;2023-10-13T03:09:24;96303.38;;;23.27
20867;BMP280;10593;48.398;10.698;2023-10-13T03:11:50;96303.38;;;23.27
20867;BMP280;10593;48.398;10.698;2023-10-13T03:14:17;96304.41;;;23.24
20867;BMP280;10593;48.398;10.698;2023-10-13T03:17:02;96309.88;;;23.21
20867;BMP280;10593;48.398;10.698;2023-10-13T03:19:31;96303.03;;;23.19
20867;BMP280;10593;48.398;10.698;2023-10-13T03:22:01;96301.44;;;23.16
20867;BMP280;10593;48.398;10.698;2023-10-13T03:24:50;96303.31;;;23.14
20867;BMP280;10593;48.398;10.698;2023-10-13T03:27:19;96299.09;;;23.12
20867;BMP280;10593;48.398;10.698;2023-10-13T03:29:49;96301.81;;;23.10
20867;BMP280;10593;48.398;10.698;2023-10-13T03:32:22;96296.66;;;23.09
20867;BMP280;10593;48.398;10.698;2023-10-13T03:34:51;96288.16;;;23.05
20867;BMP280;10593;48.398;10.698;2023-10-13T03:37:26;96288.28;;;23.04
20867;BMP280;10593;48.398;10.698;2023-10-13T03:40:10;96291.00;;;23.02
20867;BMP280;10593;48.398;10.698;2023-10-13T03:42:52;96282.31;;;23.02
20867;BMP280;10593;48.398;10.698;2023-10-13T03:45:26;96282.59;;;22.97
20867;BMP280;10593;48.398;10.698;2023-10-13T03:47:53;96282.59;;;22.97
20867;BMP280;10593;48.398;10.698;2023-10-13T03:50:20;96280.19;;;22.94
20867;BMP280;10593;48.398;10.698;2023-10-13T03:52:56;96279.44;;;22.92
20867;BMP280;10593;48.398;10.698;2023-10-13T03:55:25;96275.25;;;22.90
20867;BMP280;10593;48.398;10.698;2023-10-13T03:57:56;96269.25;;;22.88
20867;BMP280;10593;48.398;10.698;2023-10-13T04:00:25;96263.28;;;22.86
20867;BMP280;10593;48.398;10.698;2023-10-13T04:02:52;96260.97;;;22.81
20867;BMP280;10593;48.398;10.698;2023-10-13T04:05:36;96260.97;;;22.81
20867;BMP280;10593;48.398;10.698;2023-10-13T04:08:06;96262.94;;;22.78
20867;BMP280;10593;48.398;10.698;2023-10-13T04:10:52;96264.81;;;22.76
20867;BMP280;10593;48.398;10.698;2023-10-13T04:13:18;96263.31;;;22.72
20867;BMP280;10593;48.398;10.698;2023-10-13T04:16:12;96265.19;;;22.70
20867;BMP280;10593;48.398;10.698;2023-10-13T04:19:01;96266.34;;;22.66
20867;BMP280;10593;48.398;10.698;2023-10-13T04:21:27;96268.31;;;22.62
20867;BMP280;10593;48.398;10.698;2023-10-13T04:24:09;96260.56;;;22.61
20867;BMP280;10593;48.398;10.698;2023-10-13T04:26:52;96265.97;;;22.58
20867;BMP280;10593;48.398;10.698;2023-10-13T04:29:36;96265.97;;;22.58
20867;BMP280;10593;48.398;10.698;2023-10-13T04:32:22;96262.84;;;22.53
20867;BMP280;10593;48.398;10.698;2023-10-13T04:34:58;96262.84;;;22.53
20867;BMP280;10593;48.398;10.698;2023-10-13T04:37:45;96258.53;;;22.52
20867;BMP280;10593;48.398;10.698;2023-10-13T04:40:26;96257.78;;;22.50
20867;BMP280;10593;48.398;10.698;2023-10-13T04:42:53;96254.44;;;22.48
20867;BMP280;10593;48.398;10.698;2023-10-13T04:45:25;96253.59;;;22.47
20867;BMP280;10593;48.398;10.698;2023-10-13T04:47:57;96255.38;;;22.47
20867;BMP280;10593;48.398;10.698;2023-10-13T04:50:38;96254.63;;;22.45
20867;BMP280;10593;48.398;10.698;2023-10-13T04:53:17;96246.00;;;22.43
20867;BMP280;10593;48.398;10.698;2023-10-13T04:55:57;96246.97;;;22.42
20867;BMP280;10593;48.398;10.698;2023-10-13T04:58:32;96261.00;;;22.41
20867;BMP280;10593;48.398;10.698;2023-10-13T05:01:05;96257.63;;;22.39
20867;BMP280;10593;48.398;10.698;2023-10-13T05:04:08;96265.75;;;22.34
20867;BMP280;10593;48.398;10.698;2023-10-13T05:06:40;96265.75;;;22.34
20867;BMP280;10593;48.398;10.698;2023-10-13T05:09:14;96260.78;;;22.30
20867;BMP280;10593;48.398;10.698;2023-10-13T05:11:59;96264.34;;;22.29
20867;BMP280;10593;48.398;10.698;2023-10-13T05:14:43;96263.72;;;22.25
20867;BMP280;10593;48.398;10.698;2023-10-13T05:17:27;96256.91;;;22.23
20867;BMP280;10593;48.398;10.698;2023-10-13T05:20:12;96252.81;;;22.19
20867;BMP280;10593;48.398;10.698;2023-10-13T05:22:56;96252.97;;;22.16
20867;BMP280;10593;48.398;10.698;2023-10-13T05:25:40;96260.28;;;22.11
20867;BMP280;10593;48.398;10.698;2023-10-13T05:28:24;96256.06;;;22.08
20867;BMP280;10593;48.398;10.698;2023-10-13T05:31:08;96256.06;;;22.08
20867;BMP280;10593;48.398;10.698;2023-10-13T05:33:53;96253.72;;;22.04
20867;BMP280;10593;48.398;10.698;2023-10-13T05:36:37;96255.63;;;22.02
20867;BMP280;10593;48.398;10.698;2023-10-13T05:39:23;96253.28;;;21.97
20867;BMP280;10593;48.398;10.698;2023-10-13T05:42:08;96252.53;;;21.95
20867;BMP280;10593;48.398;10.698;2023-10-13T05:44:52;96257.03;;;21.93
20867;BMP280;10593;48.398;10.698;2023-10-13T05:47:36;96258.03;;;21.91
20867;BMP280;10593;48.398;10.698;2023-10-13T05:50:09;96259.09;;;21.88
20867;BMP280;10593;48.398;10.698;2023-10-13T05:52:49;96257.41;;;21.87
20867;BMP280;10593;48.398;10.698;2023-10-13T05:55:26;96264.41;;;21.87
20867;BMP280;10593;48.398;10.698;2023-10-13T05:58:11;96270.59;;;21.86
20867;BMP280;10593;48.398;10.698;2023-10-13T06:00:57;96267.22;;;21.84
20867;BMP280;10593;48.398;10.698;2023-10-13T06:03:41;96262.84;;;21.84
20867;BMP280;10593;48.398;10.698;2023-10-13T06:06:25;96262.84;;;21.84
20867;BMP280;10593;48.398;10.698;2023-10-13T06:09:10;96263.66;;;21.85
20867;BMP280;10593;48.398;10.698;2023-10-13T06:11:54;96272.25;;;21.87
20867;BMP280;10593;48.398;10.698;2023-10-13T06:14:38;96279.63;;;21.94
20867;BMP280;10593;48.398;10.698;2023-10-13T06:17:22;96279.91;;;22.04
20867;BMP280;10593;48.398;10.698;2023-10-13T06:20:07;96270.47;;;22.15
20867;BMP280;10593;48.398;10.698;2023-10-13T06:22:52;96272.03;;;22.32
20867;BMP280;10593;48.398;10.698;2023-10-13T06:25:37;96273.50;;;22.50
20867;BMP280;10593;48.398;10.698;2023-10-13T06:28:22;96272.97;;;22.71
20867;BMP280;10593;48.398;10.698;2023-10-13T06:31:07;96270.81;;;22.90
20867;BMP280;10593;48.398;10.698;2023-10-13T06:33:36;96264.25;;;23.10
20867;BMP280;10593;48.398;10.698;2023-10-13T06:36:11;96274.53;;;23.27
20867;BMP280;10593;48.398;10.698;2023-10-13T06:38:37;96280.53;;;23.66
20867;BMP280;10593;48.398;10.698;2023-10-13T06:41:04;96275.63;;;23.86
20867;BMP280;10593;48.398;10.698;2023-10-13T06:43:36;96279.16;;;24.10
20867;BMP280;10593;48.398;10.698;2023-10-13T06:46:12;96269.66;;;24.33
20867;BMP280;10593;48.398;10.698;2023-10-13T06:48:49;96270.66;;;24.55
20867;BMP280;10593;48.398;10.698;2023-10-13T06:51:18;96271.53;;;24.79
20867;BMP280;10593;48.398;10.698;2023-10-13T06:53:48;96280.00;;;25.06
20867;BMP280;10593;48.398;10.698;2023-10-13T06:56:15;96268.53;;;25.31
20867;BMP280;10593;48.398;10.698;2023-10-13T06:58:49;96262.97;;;25.57
20867;BMP280;10593;48.398;10.698;2023-10-13T07:01:14;96262.97;;;25.57
20867;BMP280;10593;48.398;10.698;2023-10-13T07:03:43;96260.16;;;26.04
20867;BMP280;10593;48.398;10.698;2023-10-13T07:06:09;96260.16;;;26.04
20867;BMP280;10593;48.398;10.698;2023-10-13T07:08:43;96260.88;;;26.17
20867;BMP280;10593;48.398;10.698;2023-10-13T07:11:25;96258.75;;;26.22
20867;BMP280;10593;48.398;10.698;2023-10-13T07:14:04;96252.50;;;26.23
20867;BMP280;10593;48.398;10.698;2023-10-13T07:17:06;96251.19;;;26.17
20867;BMP280;10593;48.398;10.698;2023-10-13T07:19:33;96260.66;;;26.09
20867;BMP280;10593;48.398;10.698;2023-10-13T07:22:01;96264.72;;;26.02
20867;BMP280;10593;48.398;10.698;2023-10-13T07:24:47;96264.47;;;25.94
20867;BMP280;10593;48.398;10.698;2023-10-13T07:27:18;96268.03;;;25.82
20867;BMP280;10593;48.398;10.698;2023-10-13T07:29:54;96267.78;;;25.74
20867;BMP280;10593;48.398;10.698;2023-10-13T07:32:42;96274.69;;;25.64
20867;BMP280;10593;48.398;10.698;2023-10-13T07:35:16;96276.38;;;25.54
20867;BMP280;10593;48.398;10.698;2023-10-13T07:37:46;96273.59;;;25.45
20867;BMP280;10593;48.398;10.698;2023-10-13T07:40:18;96267.94;;;25.38
20867;BMP280;10593;48.398;10.698;2023-10-13T07:42:57;96275.47;;;25.32
20867;BMP280;10593;48.398;10.698;2023-10-13T07:45:42;96269.81;;;25.25
20867;BMP280;10593;48.398;10.698;2023-10-13T07:48:11;96265.94;;;25.18
20867;BMP280;10593;48.398;10.698;2023-10-13T07:51:03;96277.16;;;25.09
20867;BMP280;10593;48.398;10.698;2023-10-13T07:53:31;96271.28;;;25.06
20867;BMP280;10593;48.398;10.698;2023-10-13T07:56:22;96271.28;;;25.06
20867;BMP280;10593;48.398;10.698;2023-10-13T07:58:48;96269.94;;;25.00
20867;BMP280;10593;48.398;10.698;2023-10-13T08:01:26;96262.28;;;24.97
20867;BMP280;10593;48.398;10.698;2023-10-13T08:03:52;96266.19;;;24.92
20867;BMP280;10593;48.398;10.698;2023-10-13T08:06:30;96270.00;;;24.88
20867;BMP280;10593;48.398;10.698;2023-10-13T08:08:56;96270.00;;;24.88
20867;BMP280;10593;48.398;10.698;2023-10-13T08:11:33;96256.38;;;24.83
20867;BMP280;10593;48.398;10.698;2023-10-13T08:14:01;96266.16;;;24.81
20867;BMP280;10593;48.398;10.698;2023-10-13T08:16:48;96260.16;;;24.79
20867;BMP280;10593;48.398;10.698;2023-10-13T08:19:25;96267.44;;;24.75
20867;BMP280;10593;48.398;10.698;2023-10-13T08:22:05;96269.31;;;24.73
20867;BMP280;10593;48.398;10.698;2023-10-13T08:24:50;96270.50;;;24.69
20867;BMP280;10593;48.398;10.698;2023-10-13T08:27:20;96262.13;;;24.64
20867;BMP280;10593;48.398;10.698;2023-10-13T08:30:00;96260.44;;;24.63
20867;BMP280;10593;48.398;10.698;2023-10-13T08:32:45;96252.78;;;24.60
20867;BMP280;10593;48.398;10.698;2023-10-13T08:35:21;96252.91;;;24.59
20867;BMP280;10593;48.398;10.698;2023-10-13T08:37:56;96258.97;;;24.59
20867;BMP280;10593;48.398;10.698;2023-10-13T08:40:27;96261.72;;;24.58
20867;BMP280;10593;48.398;10.698;2023-10-13T08:43:12;96250.25;;;24.59
20867;BMP280;10593;48.398;10.698;2023-10-13T08:45:42;96247.75;;;24.57
20867;BMP280;10593;48.398;10.698;2023-10-13T08:48:11;96248.47;;;24.59
20867;BMP280;10593;48.398;10.698;2023-10-13T08:50:51;96251.84;;;24.61
20867;BMP280;10593;48.398;10.698;2023-10-13T08:56:10;96245.50;;;24.64
20867;BMP280;10593;48.398;10.698;2023-10-13T08:58:40;96244.34;;;24.68
20867;BMP280;10593;48.398;10.698;2023-10-13T09:01:19;96244.34;;;24.68
20867;BMP280;10593;48.398;10.698;2023-10-13T09:04:02;96241.59;;;24.69
20867;BMP280;10593;48.398;10.698;2023-10-13T09:07:03;96241.59;;;24.69
20867;BMP280;10593;48.398;10.698;2023-10-13T09:14:41;96239.69;;;24.71
20867;BMP280;10593;48.398;10.698;2023-10-13T09:17:13;96233.28;;;24.75
20867;BMP280;10593;48.398;10.698;2023-10-13T09:19:49;96232.91;;;24.80
20867;BMP280;10593;48.398;10.698;2023-10-13T09:22:29;96225.78;;;24.82
20867;BMP280;10593;48.398;10.698;2023-10-13T09:25:04;96220.16;;;24.86
20867;BMP280;10593;48.398;10.698;2023-10-13T09:27:32;96221.72;;;24.89
20867;BMP280;10593;48.398;10.698;2023-10-13T09:30:03;96223.16;;;24.93
20867;BMP280;10593;48.398;10.698;2023-10-13T09:32:36;96223.69;;;24.98
20867;BMP280;10593;48.398;10.698;2023-10-13T09:35:20;96219.97;;;25.00
20867;BMP280;10593;48.398;10.698;2023-10-13T09:37:50;96225.72;;;25.05
20867;BMP280;10593;48.398;10.698;2023-10-13T09:40:17;96228.03;;;25.10
20867;BMP280;10593;48.398;10.698;2023-10-13T09:43:00;96219.78;;;25.14
20867;BMP280;10593;48.398;10.698;2023-10-13T09:45:34;96216.06;;;25.17
20867;BMP280;10593;48.398;10.698;2023-10-13T09:48:11;96211.34;;;25.22
20867;BMP280;10593;48.398;10.698;2023-10-13T09:50:48;96215.53;;;25.24
20867;BMP280;10593;48.398;10.698;2023-10-13T09:53:16;96210.88;;;25.28
20867;BMP280;10593;48.398;10.698;2023-10-13T09:56:21;96206.94;;;25.33
20867;BMP280;10593;48.398;10.698;2023-10-13T09:59:11;96206.94;;;25.33
20867;BMP280;10593;48.398;10.698;2023-10-13T10:01:44;96205.75;;;25.37
20867;BMP280;10593;48.398;10.698;2023-10-13T10:04:18;96202.66;;;25.43
20867;BMP280;10593;48.398;10.698;2023-10-13T10:06:55;96202.66;;;25.43
20867;BMP280;10593;48.398;10.698;2023-10-13T10:09:33;96193.66;;;25.46
20867;BMP280;10593;48.398;10.698;2023-10-13T10:12:27;96205.75;;;25.48
20867;BMP280;10593;48.398;10.698;2023-10-13T10:18:02;96187.00;;;25.53
20867;BMP280;10593;48.398;10.698;2023-10-13T10:20:36;96188.56;;;25.55
20867;BMP280;10593;48.398;10.698;2023-10-13T10:23:10;96184.72;;;25.59
20867;BMP280;10593;48.398;10.698;2023-10-13T10:25:50;96181.84;;;25.62
20867;BMP280;10593;48.398;10.698;2023-10-13T10:28:17;96179.69;;;25.67
20867;BMP280;10593;48.398;10.698;2023-10-13T10:30:45;96173.25;;;25.71
20867;BMP280;10593;48.398;10.698;2023-10-13T10:33:12;96169.41;;;25.75
20867;BMP280;10593;48.398;10.698;2023-10-13T10:35:46;96162.94;;;25.79
20867;BMP280;10593;48.398;10.698;2023-10-13T10:38:21;96158.25;;;25.83
20867;BMP280;10593;48.398;10.698;2023-10-13T10:41:06;96154.34;;;25.88
20867;BMP280;10593;48.398;10.698;2023-10-13T10:46:26;96152.78;;;25.96
20867;BMP280;10593;48.398;10.698;2023-10-13T10:48:53;96141.63;;;26.04
20867;BMP280;10593;48.398;10.698;2023-10-13T10:51:27;96141.63;;;26.04
20867;BMP280;10593;48.398;10.698;2023-10-13T10:53:58;96132.13;;;26.12
20867;BMP280;10593;48.398;10.698;2023-10-13T10:56:37;96137.03;;;26.17
20867;BMP280;10593;48.398;10.698;2023-10-13T10:59:06;96137.03;;;26.17
20867;BMP280;10593;48.398;10.698;2023-10-13T11:01:44;96127.22;;;26.19
20867;BMP280;10593;48.398;10.698;2023-10-13T11:04:13;96116.91;;;26.27
20867;BMP280;10593;48.398;10.698;2023-10-13T11:06:48;96116.91;;;26.27
20867;BMP280;10593;48.398;10.698;2023-10-13T11:09:15;96114.97;;;26.29
20867;BMP280;10593;48.398;10.698;2023-10-13T11:12:17;96108.47;;;26.33
20867;BMP280;10593;48.398;10.698;2023-10-13T11:15:08;96105.47;;;26.37
20867;BMP280;10593;48.398;10.698;2023-10-13T11:17:58;96100.78;;;26.41
20867;BMP280;10593;48.398;10.698;2023-10-13T11:20:24;96095.25;;;26.44
20867;BMP280;10593;48.398;10.698;2023-10-13T11:23:14;96087.88;;;26.49
20867;BMP280;10593;48.398;10.698;2023-10-13T11:25:41;96087.44;;;26.53
20867;BMP280;10593;48.398;10.698;2023-10-13T11:28:16;96083.75;;;26.56
20867;BMP280;10593;48.398;10.698;2023-10-13T11:30:47;96084.19;;;26.61
20867;BMP280;10593;48.398;10.698;2023-10-13T11:33:17;96087.88;;;26.69
20867;BMP280;10593;48.398;10.698;2023-10-13T11:35:44;96087.88;;;26.69
20867;BMP280;10593;48.398;10.698;2023-10-13T11:38:35;96076.09;;;26.73
20867;BMP280;10593;48.398;10.698;2023-10-13T11:41:16;96070.88;;;26.83
20867;BMP280;10593;48.398;10.698;2023-10-13T11:43:51;96070.88;;;26.83
20867;BMP280;10593;48.398;10.698;2023-10-13T11:46:23;96067.00;;;26.87
20867;BMP280;10593;48.398;10.698;2023-10-13T11:49:05;96069.25;;;26.91
20867;BMP280;10593;48.398;10.698;2023-10-13T11:51:45;96063.72;;;26.94
20867;BMP280;10593;48.398;10.698;2023-10-13T11:54:16;96056.38;;;26.98
20867;BMP280;10593;48.398;10.698;2023-10-13T11:56:46;96051.56;;;27.03
20867;BMP280;10593;48.398;10.698;2023-10-13T11:59:12;96032.44;;;27.10
20867;BMP280;10593;48.398;10.698;2023-10-13T12:01:48;96032.44;;;27.10
20867;BMP280;10593;48.398;10.698;2023-10-13T12:04:33;96035.44;;;27.17
20867;BMP280;10593;48.398;10.698;2023-10-13T12:07:18;96035.44;;;27.17
20867;BMP280;10593;48.398;10.698;2023-10-13T12:09:51;96033.47;;;27.19
20867;BMP280;10593;48.398;10.698;2023-10-13T12:12:27;96027.81;;;27.23
20867;BMP280;10593;48.398;10.698;2023-10-13T12:14:54;96027.53;;;27.26
20867;BMP280;10593;48.398;10.698;2023-10-13T12:17:29;96028.94;;;27.30
20867;BMP280;10593;48.398;10.698;2023-10-13T12:20:05;96017.28;;;27.33
20867;BMP280;10593;48.398;10.698;2023-10-13T12:22:32;96020.63;;;27.35
20867;BMP280;10593;48.398;10.698;2023-10-13T12:25:10;96010.75;;;27.37
20867;BMP280;10593;48.398;10.698;2023-10-13T12:28:00;96010.38;;;27.41
20867;BMP280;10593;48.398;10.698;2023-10-13T12:30:46;96009.28;;;27.44
20867;BMP280;10593;48.398;10.698;2023-10-13T12:33:16;95996.75;;;27.46
20867;BMP280;10593;48.398;10.698;2023-10-13T12:35:57;95992.06;;;27.49
20867;BMP280;10593;48.398;10.698;2023-10-13T12:38:38;95993.56;;;27.52
20867;BMP280;10593;48.398;10.698;2023-10-13T12:41:20;95998.56;;;27.55
20867;BMP280;10593;48.398;10.698;2023-10-13T12:44:06;95987.88;;;27.56
20867;BMP280;10593;48.398;10.698;2023-10-13T12:46:51;95987.88;;;27.56
20867;BMP280;10593;48.398;10.698;2023-10-13T12:49:36;95982.47;;;27.58
20867;BMP280;10593;48.398;10.698;2023-10-13T12:52:09;95971.75;;;27.59
20867;BMP280;10593;48.398;10.698;2023-10-13T12:54:57;95974.97;;;27.63
20867;BMP280;10593;48.398;10.698;2023-10-13T12:57:28;95968.19;;;27.70
20867;BMP280;10593;48.398;10.698;2023-10-13T12:59:54;95968.19;;;27.70
20867;BMP280;10593;48.398;10.698;2023-10-13T13:02:25;95964.03;;;27.77
20867;BMP280;10593;48.398;10.698;2023-10-13T13:04:56;95964.03;;;27.77
20867;BMP280;10593;48.398;10.698;2023-10-13T13:07:32;95946.25;;;27.79
20867;BMP280;10593;48.398;10.698;2023-10-13T13:10:10;95946.94;;;27.81
20867;BMP280;10593;48.398;10.698;2023-10-13T13:12:37;95949.31;;;27.84
20867;BMP280;10593;48.398;10.698;2023-10-13T13:15:03;95941.13;;;27.87
20867;BMP280;10593;48.398;10.698;2023-10-13T13:17:35;95928.72;;;27.87
20867;BMP280;10593;48.398;10.698;2023-10-13T13:20:01;95928.31;;;27.92
20867;BMP280;10593;48.398;10.698;2023-10-13T13:22:37;95922.75;;;27.95
20867;BMP280;10593;48.398;10.698;2023-10-13T13:25:04;95931.38;;;27.97
20867;BMP280;10593;48.398;10.698;2023-10-13T13:27:34;95920.53;;;28.00
20867;BMP280;10593;48.398;10.698;2023-10-13T13:30:00;95922.03;;;28.02
20867;BMP280;10593;48.398;10.698;2023-10-13T13:32:26;95917.47;;;28.04
20867;BMP280;10593;48.398;10.698;2023-10-13T13:34:54;95912.03;;;28.06
20867;BMP280;10593;48.398;10.698;2023-10-13T13:37:21;95917.03;;;28.09
20867;BMP280;10593;48.398;10.698;2023-10-13T13:39:47;95916.06;;;28.10
20867;BMP280;10593;48.398;10.698;2023-10-13T13:42:12;95908.84;;;28.12
20867;BMP280;10593;48.398;10.698;2023-10-13T13:44:44;95910.34;;;28.14
20867;BMP280;10593;48.398;10.698;2023-10-13T13:47:15;95907.44;;;28.17
20867;BMP280;10593;48.398;10.698;2023-10-13T13:49:41;95908.94;;;28.19
20867;BMP280;10593;48.398;10.698;2023-10-13T13:52:17;95895.59;;;28.21
20867;BMP280;10593;48.398;10.698;2023-10-13T13:54:43;95890.88;;;28.24
20867;BMP280;10593;48.398;10.698;2023-10-13T13:57:09;95883.63;;;28.26
20867;BMP280;10593;48.398;10.698;2023-10-13T13:59:35;95880.81;;;28.28
20867;BMP280;10593;48.398;10.698;2023-10-13T14:02:02;95877.06;;;28.30
20867;BMP280;10593;48.398;10.698;2023-10-13T14:04:49;95872.22;;;28.35
20867;BMP280;10593;48.398;10.698;2023-10-13T14:07:18;95872.22;;;28.35
20867;BMP280;10593;48.398;10.698;2023-10-13T14:09:49;95875.81;;;28.34
20867;BMP280;10593;48.398;10.698;2023-10-13T14:12:19;95873.75;;;28.38
20867;BMP280;10593;48.398;10.698;2023-10-13T14:15:09;95869.00;;;28.41
20867;BMP280;10593;48.398;10.698;2023-10-13T14:17:46;95869.00;;;28.41
20867;BMP280;10593;48.398;10.698;2023-10-13T14:20:15;95860.78;;;28.44
20867;BMP280;10593;48.398;10.698;2023-10-13T14:22:45;95860.78;;;28.44
20867;BMP280;10593;48.398;10.698;2023-10-13T14:25:14;95848.41;;;28.45
20867;BMP280;10593;48.398;10.698;2023-10-13T14:27:41;95855.34;;;28.46
20867;BMP280;10593;48.398;10.698;2023-10-13T14:30:08;95849.91;;;28.47
20867;BMP280;10593;48.398;10.698;2023-10-13T14:32:33;95842.81;;;28.48
20867;BMP280;10593;48.398;10.698;2023-10-13T14:35:06;95832.06;;;28.49
20867;BMP280;10593;48.398;10.698;2023-10-13T14:37:40;95838.22;;;28.50
20867;BMP280;10593;48.398;10.698;2023-10-13T14:40:07;95831.13;;;28.50
20867;BMP280;10593;48.398;10.698;2023-10-13T14:42:38;95827.50;;;28.51
20867;BMP280;10593;48.398;10.698;2023-10-13T14:45:07;95822.91;;;28.53
20867;BMP280;10593;48.398;10.698;2023-10-13T14:47:40;95824.56;;;28.54
20867;BMP280;10593;48.398;10.698;2023-10-13T14:50:06;95834.28;;;28.54
20867;BMP280;10593;48.398;10.698;2023-10-13T14:52:32;95826.22;;;28.55
20867;BMP280;10593;48.398;10.698;2023-10-13T14:54:58;95822.59;;;28.56